Terminal Aerodrome Forecast
Issued by NWS

Home | Current Version | Previous Version | Graphics & Text | Print | Product List | Glossary On
Versions: 1 2 3 4 5 6 7 8 9 10 11 12 13 14 15 16 17 18 19 20 21 22 23 24 25 26 27
000
FTUS43 KLOT 170254 AAA
TAFDPA
TAF AMD
KDPA 170254Z 1703/1724 27005KT P6SM SCT250
     FM170500 VRB03KT P6SM FEW180 BKN250
     FM171600 21011KT P6SM BKN100
     FM172000 22012KT 3SM -SHSN SCT020 OVC030
      TEMPO 1721/1723 1SM -SHSN SCT015 OVC020
     FM172330 26008KT P6SM SCT025=

USA.gov is the U.S. government's official web portal to all federal, state and local government web resources and services.